sensor_id;sensor_type;location;lat;lon;timestamp;pressure;altitude;pressure_sealevel;temperature;humidity
68380;BME280;57711;53.196;19.638;2024-03-02T00:01:36;99836.90;;;7.84;70.38
68380;BME280;57711;53.196;19.638;2024-03-02T00:04:04;99836.42;;;7.83;70.40
68380;BME280;57711;53.196;19.638;2024-03-02T00:06:34;99835.67;;;7.81;70.32
68380;BME280;57711;53.196;19.638;2024-03-02T00:09:02;99835.77;;;7.80;70.41
68380;BME280;57711;53.196;19.638;2024-03-02T00:11:30;99832.09;;;7.79;70.56
68380;BME280;57711;53.196;19.638;2024-03-02T00:13:57;99830.30;;;7.81;70.37
68380;BME280;57711;53.196;19.638;2024-03-02T00:16:30;99833.73;;;7.85;70.51
68380;BME280;57711;53.196;19.638;2024-03-02T00:19:01;99831.44;;;7.89;70.24
68380;BME280;57711;53.196;19.638;2024-03-02T00:21:30;99831.40;;;7.91;70.24
68380;BME280;57711;53.196;19.638;2024-03-02T00:23:58;99831.27;;;7.95;70.21
68380;BME280;57711;53.196;19.638;2024-03-02T00:26:26;99826.64;;;7.99;70.30
68380;BME280;57711;53.196;19.638;2024-03-02T00:28:55;99825.94;;;7.99;70.24
68380;BME280;57711;53.196;19.638;2024-03-02T00:31:24;99825.58;;;7.99;70.23
68380;BME280;57711;53.196;19.638;2024-03-02T00:33:53;99824.55;;;8.00;70.23
68380;BME280;57711;53.196;19.638;2024-03-02T00:36:26;99826.31;;;8.00;70.37
68380;BME280;57711;53.196;19.638;2024-03-02T00:38:54;99827.58;;;8.01;70.45
68380;BME280;57711;53.196;19.638;2024-03-02T00:41:27;99830.80;;;7.99;70.32
68380;BME280;57711;53.196;19.638;2024-03-02T00:46:30;99831.02;;;7.94;70.58
68380;BME280;57711;53.196;19.638;2024-03-02T00:49:00;99827.35;;;7.92;70.49
68380;BME280;57711;53.196;19.638;2024-03-02T00:51:34;99824.09;;;7.90;70.49
68380;BME280;57711;53.196;19.638;2024-03-02T00:54:05;99825.46;;;7.89;70.43
68380;BME280;57711;53.196;19.638;2024-03-02T00:56:34;99820.42;;;7.87;70.31
68380;BME280;57711;53.196;19.638;2024-03-02T00:59:02;99819.55;;;7.85;70.53
68380;BME280;57711;53.196;19.638;2024-03-02T01:01:29;99816.64;;;7.83;70.49
68380;BME280;57711;53.196;19.638;2024-03-02T01:03:56;99814.55;;;7.82;70.49
68380;BME280;57711;53.196;19.638;2024-03-02T01:06:23;99811.78;;;7.79;70.57
68380;BME280;57711;53.196;19.638;2024-03-02T01:08:51;99809.53;;;7.78;70.49
68380;BME280;57711;53.196;19.638;2024-03-02T01:11:20;99807.65;;;7.79;70.37
68380;BME280;57711;53.196;19.638;2024-03-02T01:13:51;99810.30;;;7.79;70.52
68380;BME280;57711;53.196;19.638;2024-03-02T01:16:20;99810.41;;;7.78;70.44
68380;BME280;57711;53.196;19.638;2024-03-02T01:18:47;99809.91;;;7.75;70.37
68380;BME280;57711;53.196;19.638;2024-03-02T01:21:15;99805.52;;;7.72;70.38
68380;BME280;57711;53.196;19.638;2024-03-02T01:23:42;99811.89;;;7.69;70.51
68380;BME280;57711;53.196;19.638;2024-03-02T01:26:10;99808.30;;;7.67;70.57
68380;BME280;57711;53.196;19.638;2024-03-02T01:28:37;99806.55;;;7.64;70.51
68380;BME280;57711;53.196;19.638;2024-03-02T01:31:04;99803.31;;;7.64;70.45
68380;BME280;57711;53.196;19.638;2024-03-02T01:33:32;99804.27;;;7.63;70.50
68380;BME280;57711;53.196;19.638;2024-03-02T01:35:59;99806.60;;;7.63;70.46
68380;BME280;57711;53.196;19.638;2024-03-02T01:38:26;99802.55;;;7.62;70.44
68380;BME280;57711;53.196;19.638;2024-03-02T01:40:55;99804.64;;;7.61;70.55
68380;BME280;57711;53.196;19.638;2024-03-02T01:43:24;99802.20;;;7.60;70.55
68380;BME280;57711;53.196;19.638;2024-03-02T01:45:51;99801.10;;;7.61;70.57
68380;BME280;57711;53.196;19.638;2024-03-02T01:48:18;99800.09;;;7.60;70.60
68380;BME280;57711;53.196;19.638;2024-03-02T01:50:46;99794.27;;;7.60;70.51
68380;BME280;57711;53.196;19.638;2024-03-02T01:53:13;99787.23;;;7.58;70.51
68380;BME280;57711;53.196;19.638;2024-03-02T01:55:40;99781.61;;;7.54;70.62
68380;BME280;57711;53.196;19.638;2024-03-02T01:58:08;99779.02;;;7.53;70.64
68380;BME280;57711;53.196;19.638;2024-03-02T02:00:35;99775.75;;;7.53;70.66
68380;BME280;57711;53.196;19.638;2024-03-02T02:03:02;99771.02;;;7.54;70.72
68380;BME280;57711;53.196;19.638;2024-03-02T02:05:30;99772.55;;;7.55;70.71
68380;BME280;57711;53.196;19.638;2024-03-02T02:07:58;99767.77;;;7.57;70.62
68380;BME280;57711;53.196;19.638;2024-03-02T02:10:26;99762.58;;;7.58;70.71
68380;BME280;57711;53.196;19.638;2024-03-02T02:12:53;99767.67;;;7.60;70.70
68380;BME280;57711;53.196;19.638;2024-03-02T02:15:30;99767.54;;;7.57;70.50
68380;BME280;57711;53.196;19.638;2024-03-02T02:17:58;99773.94;;;7.54;70.68
68380;BME280;57711;53.196;19.638;2024-03-02T02:20:26;99772.41;;;7.52;70.72
68380;BME280;57711;53.196;19.638;2024-03-02T02:23:00;99771.07;;;7.51;70.76
68380;BME280;57711;53.196;19.638;2024-03-02T02:25:29;99769.80;;;7.50;70.49
68380;BME280;57711;53.196;19.638;2024-03-02T02:27:57;99766.74;;;7.47;70.50
68380;BME280;57711;53.196;19.638;2024-03-02T02:30:28;99770.16;;;7.45;70.70
68380;BME280;57711;53.196;19.638;2024-03-02T02:32:55;99768.56;;;7.43;70.74
68380;BME280;57711;53.196;19.638;2024-03-02T02:35:23;99762.73;;;7.42;70.66
68380;BME280;57711;53.196;19.638;2024-03-02T02:37:55;99759.84;;;7.40;70.73
68380;BME280;57711;53.196;19.638;2024-03-02T02:40:23;99753.23;;;7.37;70.63
68380;BME280;57711;53.196;19.638;2024-03-02T02:42:50;99754.62;;;7.35;70.73
68380;BME280;57711;53.196;19.638;2024-03-02T02:45:21;99756.07;;;7.33;70.75
68380;BME280;57711;53.196;19.638;2024-03-02T02:47:49;99757.70;;;7.31;70.61
68380;BME280;57711;53.196;19.638;2024-03-02T02:50:17;99756.70;;;7.30;70.68
68380;BME280;57711;53.196;19.638;2024-03-02T02:52:44;99761.27;;;7.27;70.66
68380;BME280;57711;53.196;19.638;2024-03-02T02:55:12;99768.71;;;7.22;70.54
68380;BME280;57711;53.196;19.638;2024-03-02T02:57:41;99773.40;;;7.19;70.66
68380;BME280;57711;53.196;19.638;2024-03-02T03:00:12;99771.30;;;7.18;70.77
68380;BME280;57711;53.196;19.638;2024-03-02T03:02:46;99768.95;;;7.18;70.70
68380;BME280;57711;53.196;19.638;2024-03-02T03:05:15;99771.95;;;7.19;70.90
68380;BME280;57711;53.196;19.638;2024-03-02T03:07:43;99771.24;;;7.19;70.81
68380;BME280;57711;53.196;19.638;2024-03-02T03:10:12;99769.02;;;7.17;70.87
68380;BME280;57711;53.196;19.638;2024-03-02T03:12:41;99773.31;;;7.18;70.71
68380;BME280;57711;53.196;19.638;2024-03-02T03:15:11;99773.88;;;7.17;70.94
68380;BME280;57711;53.196;19.638;2024-03-02T03:17:41;99770.71;;;7.17;70.83
68380;BME280;57711;53.196;19.638;2024-03-02T03:20:09;99765.67;;;7.17;70.73
68380;BME280;57711;53.196;19.638;2024-03-02T03:22:38;99769.36;;;7.18;70.81
68380;BME280;57711;53.196;19.638;2024-03-02T03:25:05;99773.97;;;7.19;70.70
68380;BME280;57711;53.196;19.638;2024-03-02T03:27:35;99779.00;;;7.19;70.83
68380;BME280;57711;53.196;19.638;2024-03-02T03:30:03;99777.31;;;7.17;70.91
68380;BME280;57711;53.196;19.638;2024-03-02T03:32:30;99771.83;;;7.16;70.78
68380;BME280;57711;53.196;19.638;2024-03-02T03:34:57;99771.32;;;7.16;70.87
68380;BME280;57711;53.196;19.638;2024-03-02T03:37:25;99772.98;;;7.15;70.85
68380;BME280;57711;53.196;19.638;2024-03-02T03:39:54;99770.88;;;7.17;70.85
68380;BME280;57711;53.196;19.638;2024-03-02T03:42:21;99768.80;;;7.18;70.86
68380;BME280;57711;53.196;19.638;2024-03-02T03:44:48;99764.62;;;7.17;70.78
68380;BME280;57711;53.196;19.638;2024-03-02T03:47:15;99770.42;;;7.16;70.84
68380;BME280;57711;53.196;19.638;2024-03-02T03:49:43;99769.18;;;7.16;70.78
68380;BME280;57711;53.196;19.638;2024-03-02T03:52:10;99771.56;;;7.15;70.79
68380;BME280;57711;53.196;19.638;2024-03-02T03:54:37;99774.30;;;7.15;70.86
68380;BME280;57711;53.196;19.638;2024-03-02T03:57:05;99766.94;;;7.15;70.83
68380;BME280;57711;53.196;19.638;2024-03-02T03:59:32;99765.40;;;7.16;70.90
68380;BME280;57711;53.196;19.638;2024-03-02T04:02:00;99753.90;;;7.16;70.88
68380;BME280;57711;53.196;19.638;2024-03-02T04:04:27;99757.31;;;7.14;70.81
68380;BME280;57711;53.196;19.638;2024-03-02T04:06:54;99756.19;;;7.14;70.89
68380;BME280;57711;53.196;19.638;2024-03-02T04:09:21;99753.59;;;7.15;71.06
68380;BME280;57711;53.196;19.638;2024-03-02T04:11:49;99752.19;;;7.15;71.03
68380;BME280;57711;53.196;19.638;2024-03-02T04:14:16;99750.01;;;7.15;70.89
68380;BME280;57711;53.196;19.638;2024-03-02T04:16:43;99749.38;;;7.14;70.86
68380;BME280;57711;53.196;19.638;2024-03-02T04:19:10;99754.41;;;7.12;70.93
68380;BME280;57711;53.196;19.638;2024-03-02T04:21:38;99757.39;;;7.11;70.98
68380;BME280;57711;53.196;19.638;2024-03-02T04:24:05;99763.84;;;7.11;70.98
68380;BME280;57711;53.196;19.638;2024-03-02T04:26:32;99765.73;;;7.10;70.85
68380;BME280;57711;53.196;19.638;2024-03-02T04:28:59;99767.15;;;7.10;71.02
68380;BME280;57711;53.196;19.638;2024-03-02T04:31:26;99768.63;;;7.09;70.97
68380;BME280;57711;53.196;19.638;2024-03-02T04:33:53;99766.73;;;7.09;70.92
68380;BME280;57711;53.196;19.638;2024-03-02T04:36:21;99766.14;;;7.07;71.05
68380;BME280;57711;53.196;19.638;2024-03-02T04:38:48;99768.91;;;7.06;71.05
68380;BME280;57711;53.196;19.638;2024-03-02T04:41:15;99765.42;;;7.05;71.08
68380;BME280;57711;53.196;19.638;2024-03-02T04:43:43;99765.01;;;7.06;71.02
68380;BME280;57711;53.196;19.638;2024-03-02T04:46:10;99766.48;;;7.07;71.08
68380;BME280;57711;53.196;19.638;2024-03-02T04:48:38;99767.95;;;7.07;70.98
68380;BME280;57711;53.196;19.638;2024-03-02T04:51:05;99765.61;;;7.07;71.20
68380;BME280;57711;53.196;19.638;2024-03-02T04:53:32;99770.77;;;7.08;70.91
68380;BME280;57711;53.196;19.638;2024-03-02T04:55:59;99771.36;;;7.09;71.01
68380;BME280;57711;53.196;19.638;2024-03-02T04:58:45;99769.98;;;7.11;70.99
68380;BME280;57711;53.196;19.638;2024-03-02T05:01:12;99773.51;;;7.09;71.11
68380;BME280;57711;53.196;19.638;2024-03-02T05:03:39;99772.65;;;7.09;71.07
68380;BME280;57711;53.196;19.638;2024-03-02T05:06:06;99771.74;;;7.09;71.03
68380;BME280;57711;53.196;19.638;2024-03-02T05:08:34;99770.52;;;7.08;71.08
68380;BME280;57711;53.196;19.638;2024-03-02T05:11:01;99770.41;;;7.10;71.02
68380;BME280;57711;53.196;19.638;2024-03-02T05:13:49;99770.91;;;7.10;71.13
68380;BME280;57711;53.196;19.638;2024-03-02T05:16:16;99773.06;;;7.10;70.95
68380;BME280;57711;53.196;19.638;2024-03-02T05:18:43;99776.16;;;7.08;71.05
68380;BME280;57711;53.196;19.638;2024-03-02T05:21:10;99775.87;;;7.07;71.21
68380;BME280;57711;53.196;19.638;2024-03-02T05:23:38;99779.64;;;7.07;70.99
68380;BME280;57711;53.196;19.638;2024-03-02T05:26:06;99781.06;;;7.07;71.07
68380;BME280;57711;53.196;19.638;2024-03-02T05:28:33;99786.63;;;7.07;71.08
68380;BME280;57711;53.196;19.638;2024-03-02T05:31:00;99786.30;;;7.07;71.06
68380;BME280;57711;53.196;19.638;2024-03-02T05:33:27;99785.84;;;7.06;71.18
68380;BME280;57711;53.196;19.638;2024-03-02T05:35:55;99790.39;;;7.05;71.09
68380;BME280;57711;53.196;19.638;2024-03-02T05:38:23;99796.64;;;7.04;71.19
68380;BME280;57711;53.196;19.638;2024-03-02T05:40:50;99795.30;;;7.02;71.04
68380;BME280;57711;53.196;19.638;2024-03-02T05:43:17;99799.43;;;7.02;71.13
68380;BME280;57711;53.196;19.638;2024-03-02T05:45:45;99800.08;;;7.01;71.09
68380;BME280;57711;53.196;19.638;2024-03-02T05:48:12;99802.89;;;7.02;71.25
68380;BME280;57711;53.196;19.638;2024-03-02T05:50:40;99800.95;;;6.99;71.08
68380;BME280;57711;53.196;19.638;2024-03-02T05:53:07;99801.19;;;6.98;71.23
68380;BME280;57711;53.196;19.638;2024-03-02T05:55:35;99800.66;;;7.00;71.30
68380;BME280;57711;53.196;19.638;2024-03-02T05:58:02;99806.20;;;7.03;71.14
68380;BME280;57711;53.196;19.638;2024-03-02T06:00:32;99808.10;;;7.04;71.09
68380;BME280;57711;53.196;19.638;2024-03-02T06:03:00;99804.66;;;7.02;71.16
68380;BME280;57711;53.196;19.638;2024-03-02T06:05:27;99810.57;;;7.00;71.18
68380;BME280;57711;53.196;19.638;2024-03-02T06:07:54;99814.27;;;6.97;71.15
68380;BME280;57711;53.196;19.638;2024-03-02T06:10:21;99814.77;;;6.97;71.13
68380;BME280;57711;53.196;19.638;2024-03-02T06:12:48;99823.61;;;6.99;71.24
68380;BME280;57711;53.196;19.638;2024-03-02T06:15:16;99825.47;;;7.00;71.23
68380;BME280;57711;53.196;19.638;2024-03-02T06:17:44;99820.77;;;6.98;71.08
68380;BME280;57711;53.196;19.638;2024-03-02T06:20:11;99824.55;;;6.96;71.16
68380;BME280;57711;53.196;19.638;2024-03-02T06:22:38;99834.99;;;6.94;71.14
68380;BME280;57711;53.196;19.638;2024-03-02T06:25:06;99836.27;;;6.91;71.08
68380;BME280;57711;53.196;19.638;2024-03-02T06:27:33;99833.74;;;6.92;71.30
68380;BME280;57711;53.196;19.638;2024-03-02T06:30:00;99827.15;;;6.93;71.13
68380;BME280;57711;53.196;19.638;2024-03-02T06:32:27;99826.98;;;6.95;71.35
68380;BME280;57711;53.196;19.638;2024-03-02T06:34:54;99823.93;;;6.97;71.47
68380;BME280;57711;53.196;19.638;2024-03-02T06:37:22;99817.66;;;6.99;71.34
68380;BME280;57711;53.196;19.638;2024-03-02T06:39:49;99818.36;;;7.02;71.40
68380;BME280;57711;53.196;19.638;2024-03-02T06:42:16;99817.59;;;7.02;71.33
68380;BME280;57711;53.196;19.638;2024-03-02T06:44:43;99818.29;;;7.03;71.14
68380;BME280;57711;53.196;19.638;2024-03-02T06:47:10;99820.66;;;7.02;71.11
68380;BME280;57711;53.196;19.638;2024-03-02T06:49:38;99819.74;;;7.00;71.30
68380;BME280;57711;53.196;19.638;2024-03-02T06:52:05;99821.02;;;7.00;71.23
68380;BME280;57711;53.196;19.638;2024-03-02T06:54:33;99821.83;;;6.99;71.29
68380;BME280;57711;53.196;19.638;2024-03-02T06:57:01;99821.83;;;6.99;71.42
68380;BME280;57711;53.196;19.638;2024-03-02T06:59:28;99827.60;;;7.01;71.28
68380;BME280;57711;53.196;19.638;2024-03-02T07:01:56;99833.50;;;7.01;71.30
68380;BME280;57711;53.196;19.638;2024-03-02T07:04:23;99836.73;;;7.01;71.34
68380;BME280;57711;53.196;19.638;2024-03-02T07:06:50;99831.05;;;7.00;71.44
68380;BME280;57711;53.196;19.638;2024-03-02T07:09:18;99836.88;;;6.99;71.49
68380;BME280;57711;53.196;19.638;2024-03-02T07:11:49;99840.13;;;6.97;71.21
68380;BME280;57711;53.196;19.638;2024-03-02T07:14:18;99839.98;;;6.96;71.48
68380;BME280;57711;53.196;19.638;2024-03-02T07:16:45;99839.31;;;6.98;71.45
68380;BME280;57711;53.196;19.638;2024-03-02T07:19:12;99849.38;;;6.98;71.43
68380;BME280;57711;53.196;19.638;2024-03-02T07:21:40;99842.45;;;6.95;71.30
68380;BME280;57711;53.196;19.638;2024-03-02T07:24:07;99841.89;;;6.97;71.51
68380;BME280;57711;53.196;19.638;2024-03-02T07:26:36;99848.66;;;7.00;71.52
68380;BME280;57711;53.196;19.638;2024-03-02T07:29:06;99850.25;;;7.00;71.49
68380;BME280;57711;53.196;19.638;2024-03-02T07:31:33;99846.58;;;7.02;71.43
68380;BME280;57711;53.196;19.638;2024-03-02T07:34:01;99850.89;;;7.04;71.51
68380;BME280;57711;53.196;19.638;2024-03-02T07:36:28;99853.17;;;7.07;71.37
68380;BME280;57711;53.196;19.638;2024-03-02T07:38:56;99858.60;;;7.06;71.40
68380;BME280;57711;53.196;19.638;2024-03-02T07:41:23;99857.85;;;7.02;71.29
68380;BME280;57711;53.196;19.638;2024-03-02T07:43:50;99858.75;;;7.00;71.56
68380;BME280;57711;53.196;19.638;2024-03-02T07:46:17;99857.62;;;7.00;71.55
68380;BME280;57711;53.196;19.638;2024-03-02T07:48:45;99865.02;;;7.05;71.61
68380;BME280;57711;53.196;19.638;2024-03-02T07:51:12;99863.59;;;7.09;71.64
68380;BME280;57711;53.196;19.638;2024-03-02T07:53:41;99865.18;;;7.14;71.57
68380;BME280;57711;53.196;19.638;2024-03-02T07:56:08;99869.53;;;7.15;71.50
68380;BME280;57711;53.196;19.638;2024-03-02T07:58:35;99869.70;;;7.13;71.36
68380;BME280;57711;53.196;19.638;2024-03-02T08:01:03;99877.05;;;7.13;71.43
68380;BME280;57711;53.196;19.638;2024-03-02T08:03:31;99878.59;;;7.17;71.51
68380;BME280;57711;53.196;19.638;2024-03-02T08:05:59;99876.14;;;7.18;71.48
68380;BME280;57711;53.196;19.638;2024-03-02T08:08:27;99879.98;;;7.22;71.59
68380;BME280;57711;53.196;19.638;2024-03-02T08:10:54;99883.80;;;7.26;71.55
68380;BME280;57711;53.196;19.638;2024-03-02T08:13:22;99885.86;;;7.29;71.54
68380;BME280;57711;53.196;19.638;2024-03-02T08:15:49;99891.50;;;7.33;71.49
68380;BME280;57711;53.196;19.638;2024-03-02T08:18:16;99894.23;;;7.37;71.40
68380;BME280;57711;53.196;19.638;2024-03-02T08:20:44;99895.39;;;7.40;71.41
68380;BME280;57711;53.196;19.638;2024-03-02T08:23:12;99897.65;;;7.44;71.26
68380;BME280;57711;53.196;19.638;2024-03-02T08:25:39;99905.34;;;7.48;71.47
68380;BME280;57711;53.196;19.638;2024-03-02T08:28:06;99895.52;;;7.50;71.15
68380;BME280;57711;53.196;19.638;2024-03-02T08:30:33;99905.69;;;7.51;71.21
68380;BME280;57711;53.196;19.638;2024-03-02T08:33:00;99897.45;;;7.50;71.40
68380;BME280;57711;53.196;19.638;2024-03-02T08:35:27;99905.16;;;7.48;71.25
68380;BME280;57711;53.196;19.638;2024-03-02T08:37:55;99903.48;;;7.45;71.39
68380;BME280;57711;53.196;19.638;2024-03-02T08:40:22;99905.54;;;7.46;71.43
68380;BME280;57711;53.196;19.638;2024-03-02T08:42:50;99898.40;;;7.50;71.47
68380;BME280;57711;53.196;19.638;2024-03-02T08:45:17;99901.54;;;7.51;71.46
68380;BME280;57711;53.196;19.638;2024-03-02T08:47:47;99897.80;;;7.53;71.47
68380;BME280;57711;53.196;19.638;2024-03-02T08:50:15;99901.88;;;7.53;71.50
68380;BME280;57711;53.196;19.638;2024-03-02T08:52:42;99902.06;;;7.53;71.47
68380;BME280;57711;53.196;19.638;2024-03-02T08:55:09;99901.05;;;7.54;71.64
68380;BME280;57711;53.196;19.638;2024-03-02T08:57:38;99896.38;;;7.56;71.49
68380;BME280;57711;53.196;19.638;2024-03-02T09:00:06;99903.61;;;7.59;71.57
68380;BME280;57711;53.196;19.638;2024-03-02T09:02:35;99900.33;;;7.57;71.53
68380;BME280;57711;53.196;19.638;2024-03-02T09:05:02;99893.48;;;7.60;71.45
68380;BME280;57711;53.196;19.638;2024-03-02T09:07:29;99897.43;;;7.64;71.66
68380;BME280;57711;53.196;19.638;2024-03-02T09:09:56;99902.75;;;7.67;71.55
68380;BME280;57711;53.196;19.638;2024-03-02T09:12:24;99902.58;;;7.67;71.57
68380;BME280;57711;53.196;19.638;2024-03-02T09:14:51;99890.62;;;7.68;71.55
68380;BME280;57711;53.196;19.638;2024-03-02T09:17:18;99888.21;;;7.71;71.54
68380;BME280;57711;53.196;19.638;2024-03-02T09:19:45;99890.71;;;7.73;71.62
68380;BME280;57711;53.196;19.638;2024-03-02T09:22:12;99895.21;;;7.80;71.64
68380;BME280;57711;53.196;19.638;2024-03-02T09:24:40;99897.34;;;7.84;71.67
68380;BME280;57711;53.196;19.638;2024-03-02T09:27:07;99903.94;;;7.89;71.73
68380;BME280;57711;53.196;19.638;2024-03-02T09:29:34;99904.66;;;7.91;71.60
68380;BME280;57711;53.196;19.638;2024-03-02T09:32:02;99906.46;;;7.91;71.55
68380;BME280;57711;53.196;19.638;2024-03-02T09:34:29;99908.74;;;7.92;71.66
68380;BME280;57711;53.196;19.638;2024-03-02T09:36:56;99907.13;;;7.94;71.55
68380;BME280;57711;53.196;19.638;2024-03-02T09:39:23;99917.02;;;7.92;71.44
68380;BME280;57711;53.196;19.638;2024-03-02T09:41:53;99922.73;;;7.88;71.59
68380;BME280;57711;53.196;19.638;2024-03-02T09:44:20;99925.06;;;7.87;71.64
68380;BME280;57711;53.196;19.638;2024-03-02T09:46:49;99923.00;;;7.89;71.54
68380;BME280;57711;53.196;19.638;2024-03-02T09:49:16;99926.55;;;7.92;71.55
68380;BME280;57711;53.196;19.638;2024-03-02T09:51:48;99928.18;;;7.94;71.52
68380;BME280;57711;53.196;19.638;2024-03-02T09:54:16;99924.90;;;7.97;71.68
68380;BME280;57711;53.196;19.638;2024-03-02T09:56:50;99930.20;;;7.99;71.51
68380;BME280;57711;53.196;19.638;2024-03-02T09:59:18;99931.16;;;8.00;71.59
68380;BME280;57711;53.196;19.638;2024-03-02T10:01:57;99918.20;;;7.98;71.53
68380;BME280;57711;53.196;19.638;2024-03-02T10:04:29;99916.86;;;8.01;71.72
68380;BME280;57711;53.196;19.638;2024-03-02T10:07:18;99915.98;;;8.05;71.80
68380;BME280;57711;53.196;19.638;2024-03-02T10:09:47;99910.66;;;8.10;71.73
68380;BME280;57711;53.196;19.638;2024-03-02T10:12:16;99905.12;;;8.16;71.62
68380;BME280;57711;53.196;19.638;2024-03-02T10:14:44;99900.34;;;8.21;71.62
68380;BME280;57711;53.196;19.638;2024-03-02T10:17:13;99898.16;;;8.24;71.53
68380;BME280;57711;53.196;19.638;2024-03-02T10:19:40;99892.52;;;8.26;71.70
68380;BME280;57711;53.196;19.638;2024-03-02T10:22:09;99896.70;;;8.30;71.61
68380;BME280;57711;53.196;19.638;2024-03-02T10:24:41;99892.75;;;8.32;71.46
68380;BME280;57711;53.196;19.638;2024-03-02T10:27:10;99891.27;;;8.35;71.67
68380;BME280;57711;53.196;19.638;2024-03-02T10:29:42;99895.11;;;8.41;71.67
68380;BME280;57711;53.196;19.638;2024-03-02T10:32:10;99897.15;;;8.46;71.73
68380;BME280;57711;53.196;19.638;2024-03-02T10:34:41;99893.50;;;8.54;71.70
68380;BME280;57711;53.196;19.638;2024-03-02T10:37:10;99891.84;;;8.60;71.77
68380;BME280;57711;53.196;19.638;2024-03-02T10:39:39;99893.91;;;8.61;71.72
68380;BME280;57711;53.196;19.638;2024-03-02T10:42:08;99888.77;;;8.66;71.81
68380;BME280;57711;53.196;19.638;2024-03-02T10:44:36;99889.48;;;8.71;71.68
68380;BME280;57711;53.196;19.638;2024-03-02T10:47:04;99891.24;;;8.75;71.73
68380;BME280;57711;53.196;19.638;2024-03-02T10:49:32;99886.21;;;8.77;71.60
68380;BME280;57711;53.196;19.638;2024-03-02T10:52:01;99888.35;;;8.80;71.73
68380;BME280;57711;53.196;19.638;2024-03-02T10:54:28;99887.52;;;8.81;71.63
68380;BME280;57711;53.196;19.638;2024-03-02T10:57:04;99882.36;;;8.84;71.65
68380;BME280;57711;53.196;19.638;2024-03-02T10:59:34;99880.55;;;8.86;71.69
68380;BME280;57711;53.196;19.638;2024-03-02T11:02:03;99879.71;;;8.90;71.70
68380;BME280;57711;53.196;19.638;2024-03-02T11:04:34;99875.67;;;8.91;71.72
68380;BME280;57711;53.196;19.638;2024-03-02T11:07:07;99879.33;;;8.92;71.66
68380;BME280;57711;53.196;19.638;2024-03-02T11:09:41;99874.93;;;8.93;71.45
68380;BME280;57711;53.196;19.638;2024-03-02T11:14:45;99865.38;;;8.86;71.32
68380;BME280;57711;53.196;19.638;2024-03-02T11:17:14;99857.65;;;8.84;71.42
68380;BME280;57711;53.196;19.638;2024-03-02T11:19:46;99860.01;;;8.84;71.64
68380;BME280;57711;53.196;19.638;2024-03-02T11:22:15;99859.05;;;8.85;71.60
68380;BME280;57711;53.196;19.638;2024-03-02T11:24:49;99856.20;;;8.90;71.55
68380;BME280;57711;53.196;19.638;2024-03-02T11:33:09;99854.14;;;9.05;71.59
68380;BME280;57711;53.196;19.638;2024-03-02T11:35:44;99851.38;;;9.06;71.68
68380;BME280;57711;53.196;19.638;2024-03-02T11:38:15;99852.27;;;9.06;71.64
68380;BME280;57711;53.196;19.638;2024-03-02T11:40:44;99852.76;;;9.09;71.59
68380;BME280;57711;53.196;19.638;2024-03-02T11:43:12;99851.11;;;9.09;71.51
68380;BME280;57711;53.196;19.638;2024-03-02T11:45:42;99847.84;;;9.09;71.37
68380;BME280;57711;53.196;19.638;2024-03-02T11:48:14;99844.21;;;9.10;71.37
68380;BME280;57711;53.196;19.638;2024-03-02T11:50:47;99839.61;;;9.13;71.56
68380;BME280;57711;53.196;19.638;2024-03-02T11:53:14;99836.69;;;9.11;71.46
68380;BME280;57711;53.196;19.638;2024-03-02T11:55:41;99837.98;;;9.11;71.49
68380;BME280;57711;53.196;19.638;2024-03-02T11:58:15;99841.38;;;9.13;71.44
68380;BME280;57711;53.196;19.638;2024-03-02T12:00:50;99843.33;;;9.16;71.43
68380;BME280;57711;53.196;19.638;2024-03-02T12:03:21;99845.21;;;9.18;71.45
68380;BME280;57711;53.196;19.638;2024-03-02T12:05:55;99845.10;;;9.22;71.48
68380;BME280;57711;53.196;19.638;2024-03-02T12:08:22;99843.71;;;9.25;71.50
68380;BME280;57711;53.196;19.638;2024-03-02T12:11:01;99842.72;;;9.26;71.46
68380;BME280;57711;53.196;19.638;2024-03-02T12:13:30;99848.58;;;9.29;71.51
68380;BME280;57711;53.196;19.638;2024-03-02T12:15:58;99847.43;;;9.32;71.42
68380;BME280;57711;53.196;19.638;2024-03-02T12:18:26;99845.17;;;9.31;71.58
68380;BME280;57711;53.196;19.638;2024-03-02T12:20:54;99846.27;;;9.33;71.34
68380;BME280;57711;53.196;19.638;2024-03-02T12:23:25;99846.09;;;9.35;71.45
68380;BME280;57711;53.196;19.638;2024-03-02T12:25:52;99846.63;;;9.37;71.58
68380;BME280;57711;53.196;19.638;2024-03-02T12:28:20;99846.00;;;9.39;71.58
68380;BME280;57711;53.196;19.638;2024-03-02T12:30:48;99846.02;;;9.43;71.61
68380;BME280;57711;53.196;19.638;2024-03-02T12:33:16;99840.43;;;9.48;71.51
68380;BME280;57711;53.196;19.638;2024-03-02T12:35:44;99840.09;;;9.51;71.55
68380;BME280;57711;53.196;19.638;2024-03-02T12:38:11;99840.85;;;9.53;71.57
68380;BME280;57711;53.196;19.638;2024-03-02T12:40:38;99836.95;;;9.52;71.41
68380;BME280;57711;53.196;19.638;2024-03-02T12:43:06;99838.98;;;9.52;71.37
68380;BME280;57711;53.196;19.638;2024-03-02T12:45:37;99834.62;;;9.52;71.53
68380;BME280;57711;53.196;19.638;2024-03-02T12:48:04;99835.13;;;9.54;71.43
68380;BME280;57711;53.196;19.638;2024-03-02T12:50:33;99835.63;;;9.57;71.55
68380;BME280;57711;53.196;19.638;2024-03-02T12:53:01;99825.55;;;9.60;71.46
68380;BME280;57711;53.196;19.638;2024-03-02T12:55:28;99823.45;;;9.63;71.49
68380;BME280;57711;53.196;19.638;2024-03-02T12:57:57;99826.48;;;9.68;71.49
68380;BME280;57711;53.196;19.638;2024-03-02T13:00:26;99819.89;;;9.71;71.55
68380;BME280;57711;53.196;19.638;2024-03-02T13:02:56;99818.05;;;9.73;71.43
68380;BME280;57711;53.196;19.638;2024-03-02T13:05:32;99824.08;;;9.76;71.45
68380;BME280;57711;53.196;19.638;2024-03-02T13:08:00;99827.24;;;9.79;71.53
68380;BME280;57711;53.196;19.638;2024-03-02T13:10:30;99830.31;;;9.85;71.52
68380;BME280;57711;53.196;19.638;2024-03-02T13:12:57;99831.78;;;9.89;71.44
68380;BME280;57711;53.196;19.638;2024-03-02T13:15:28;99835.30;;;9.88;71.35
68380;BME280;57711;53.196;19.638;2024-03-02T13:17:58;99832.89;;;9.88;71.32